Stations météo

réclame
Mon MeteoGroup
Otranto, Italie (16334): Température de l'air & dewpoint: 10.11.2018 00:00:00 - 16.11.2018 00:00:00 (CET)Otranto, Italie (16334): Vitesse du vent: 10.11.2018 00:00:00 - 16.11.2018 00:00:00 (CET)Otranto, Italie (16334): Direction du vent: 10.11.2018 00:00:00 - 16.11.2018 00:00:00 (CET)Otranto, Italie (16334): reduced air pressure: 10.11.2018 00:00:00 - 16.11.2018 00:00:00 (CET)Otranto, Italie (16334): Quantités de précipitations: 10.11.2018 00:00:00 - 16.11.2018 00:00:00 (CET)
Date & Time tt [°C] td [°C] ff [km/h] ff [knt] dd ppp [hPa] rr [mm]
16.11.2018 00:00:00 - - - - - - -
15.11.2018 23:00:00 14,9 11,6 15 8 N 1017,9 -
15.11.2018 22:00:00 14,8 12,3 18 10 N 1018,2 -
15.11.2018 21:00:00 14,7 12,2 15 8 NNE 1018,6 -
15.11.2018 20:00:00 14,5 12,2 21 11 N 1018,6 -
15.11.2018 19:00:00 14,3 12,7 18 10 NNE 1018,9 0,0
15.11.2018 18:00:00 13,0 10,9 15 8 NNW 1019,2 -
15.11.2018 17:00:00 13,9 11,4 22 12 NNW 1019,0 -
15.11.2018 16:00:00 14,4 11,9 22 12 NNW 1019,1 -
15.11.2018 15:00:00 15,0 12,5 22 12 NNW 1019,1 -
15.11.2018 14:00:00 15,3 12,9 22 12 N 1019,4 -
15.11.2018 13:00:00 15,5 12,8 26 14 N 1019,7 0,0
15.11.2018 12:00:00 15,6 13,6 21 11 N 1020,1 -
15.11.2018 11:00:00 15,7 14,8 18 10 N 1020,7 -
15.11.2018 10:00:00 15,2 13,5 18 10 N 1020,7 -
15.11.2018 09:00:00 13,9 13,8 11 6 NNW 1021,0 -
15.11.2018 08:00:00 11,9 11,9 9 5 NNW 1020,5 -
15.11.2018 07:00:00 11,3 11,3 9 5 NW 1019,7 -
15.11.2018 06:00:00 11,9 11,9 13 7 NNW 1019,4 -
15.11.2018 05:00:00 12,6 12,6 16 9 WNW 1019,0 -
15.11.2018 04:00:00 12,6 12,6 16 9 NNW 1019,1 -
15.11.2018 03:00:00 12,7 12,7 16 9 NW 1019,6 -
15.11.2018 02:00:00 13,0 12,9 21 11 NNW 1019,9 -
15.11.2018 01:00:00 13,3 13,2 18 10 NNW 1020,1 -
15.11.2018 00:00:00 14,0 13,9 18 10 NNW 1020,2 -
14.11.2018 23:00:00 14,1 14,0 21 11 NNW 1020,6 -
14.11.2018 22:00:00 14,2 14,1 16 9 NW 1020,8 -
14.11.2018 21:00:00 14,1 14,0 16 9 NW 1020,9 -
14.11.2018 20:00:00 14,3 14,2 18 10 NNW 1021,0 -
14.11.2018 19:00:00 14,1 14,0 18 10 NNW 1020,8 0,0
14.11.2018 18:00:00 14,2 14,1 16 9 NNW 1021,0 -
14.11.2018 17:00:00 14,6 14,5 18 10 NNW 1021,1 -
14.11.2018 16:00:00 15,3 15,2 24 13 N 1021,2 -
14.11.2018 15:00:00 15,9 15,8 24 13 N 1021,4 -
14.11.2018 14:00:00 16,4 16,3 26 14 N 1021,7 -
14.11.2018 13:00:00 16,5 16,4 28 15 NNW 1022,4 0,0
14.11.2018 12:00:00 16,0 15,9 26 14 NNW - -
14.11.2018 11:00:00 16,3 16,2 26 14 N 1033,2 -
14.11.2018 10:00:00 15,4 15,3 26 14 NNW 1028,4 -
14.11.2018 09:00:00 14,4 14,3 22 12 NNW 1024,0 -
14.11.2018 08:00:00 13,7 13,6 21 11 NNW 1017,3 -
14.11.2018 07:00:00 13,3 13,2 18 10 NW 1014,8 -
14.11.2018 06:00:00 13,1 13,0 16 9 NNW 1014,0 -
14.11.2018 05:00:00 13,2 13,1 18 10 N 1013,7 -
14.11.2018 04:00:00 13,1 13,0 18 10 NNW 1013,5 -
14.11.2018 03:00:00 12,9 12,8 21 11 NNW 1013,1 -
14.11.2018 02:00:00 12,8 12,8 18 10 NNW 1013,0 -
14.11.2018 01:00:00 13,1 13,0 18 10 NW 1013,0 -
14.11.2018 00:00:00 13,0 12,9 15 8 NW 1013,2 -
13.11.2018 23:00:00 12,5 12,5 15 8 NNW 1013,7 -
13.11.2018 22:00:00 12,6 12,6 11 6 NNW 1012,8 -
13.11.2018 21:00:00 12,8 12,8 11 6 NNW 1013,7 -
13.11.2018 20:00:00 12,9 12,8 11 6 NNW 1012,1 -
13.11.2018 19:00:00 13,5 13,4 11 6 NNW 1017,1 0,0
13.11.2018 18:00:00 14,3 14,2 11 6 NNW 1023,8 -
13.11.2018 17:00:00 14,8 14,7 13 7 NNW 1026,0 -
13.11.2018 16:00:00 15,7 15,6 16 9 NNW 1025,5 -
13.11.2018 15:00:00 16,4 16,3 15 8 N 1025,6 -
13.11.2018 14:00:00 16,6 16,5 16 9 N 1025,9 -
13.11.2018 13:00:00 16,9 16,8 15 8 NNE 1026,2 0,0
13.11.2018 12:00:00 16,8 16,7 15 8 NNE 1026,6 -
13.11.2018 11:00:00 16,7 16,6 9 5 NNW 1026,9 -
13.11.2018 10:00:00 15,4 15,3 13 7 N 1027,2 -
13.11.2018 09:00:00 14,8 14,7 11 6 NNW 1027,5 -
13.11.2018 08:00:00 13,2 13,1 9 5 NW 1030,6 -
13.11.2018 07:00:00 12,1 12,1 9 5 NNW 1025,3 -
13.11.2018 06:00:00 12,2 12,2 11 6 NW 1025,7 -
13.11.2018 05:00:00 12,4 12,4 9 5 NW 1026,1 -
13.11.2018 04:00:00 12,8 12,8 11 6 NW 1025,9 -
13.11.2018 03:00:00 12,7 12,7 9 5 NW 1026,2 -
13.11.2018 02:00:00 12,7 12,7 9 5 WNW 1026,0 -
13.11.2018 01:00:00 12,8 12,8 8 4 WNW 1025,7 -
13.11.2018 00:00:00 12,7 12,7 8 4 NW 1026,0 -
12.11.2018 23:00:00 12,9 12,8 8 4 NW 1026,1 -
12.11.2018 22:00:00 12,5 12,5 4 2 NW 1026,2 -
12.11.2018 21:00:00 13,6 13,5 5 3 NW 1026,2 -
12.11.2018 20:00:00 14,1 14,0 5 3 NNW 1025,8 -
12.11.2018 19:00:00 14,4 14,3 5 3 NNW 1025,8 0,0
12.11.2018 18:00:00 15,0 14,9 8 4 NNW 1025,7 -
12.11.2018 17:00:00 15,8 15,7 8 4 NNW 1025,4 -
12.11.2018 16:00:00 17,1 17,0 11 6 NNW 1025,3 -
12.11.2018 15:00:00 17,7 17,6 11 6 N 1025,5 -
12.11.2018 14:00:00 18,0 17,9 11 6 N 1025,6 -
12.11.2018 13:00:00 17,9 17,5 13 7 N 1025,9 0,0
12.11.2018 12:00:00 18,0 17,9 11 6 N 1026,3 -
12.11.2018 11:00:00 17,6 17,5 13 7 N 1026,4 -
12.11.2018 10:00:00 17,2 17,1 11 6 N 1026,2 -
12.11.2018 09:00:00 15,8 15,7 8 4 NNW 1026,4 -
12.11.2018 08:00:00 14,2 14,1 9 5 NNW 1026,0 -
12.11.2018 07:00:00 13,1 13,0 9 5 NW 1024,9 0,0
12.11.2018 06:00:00 13,1 13,0 8 4 NNW 1024,4 -
12.11.2018 05:00:00 13,1 13,0 8 4 NW 1024,1 -
12.11.2018 04:00:00 13,4 13,3 8 4 NW 1023,9 -
12.11.2018 03:00:00 13,3 13,2 8 4 NW 1023,9 -
12.11.2018 02:00:00 13,7 13,6 5 3 NW 1023,8 -
12.11.2018 01:00:00 13,5 13,4 5 3 WNW 1023,6 0,0
12.11.2018 00:00:00 13,3 13,2 5 3 WNW 1023,6 -
11.11.2018 23:00:00 14,1 14,0 5 3 NW 1023,4 -
11.11.2018 22:00:00 15,0 14,8 2 1 N 1023,3 -
11.11.2018 21:00:00 15,4 15,3 0 0 N 1023,1 -
11.11.2018 20:00:00 15,4 14,2 0 0 N 1022,5 -
11.11.2018 19:00:00 15,1 13,9 0 0 N 1022,3 0,0
11.11.2018 18:00:00 15,9 14,7 0 0 N 1021,8 -
11.11.2018 17:00:00 16,6 15,7 2 1 ESE 1021,5 -
11.11.2018 16:00:00 18,3 17,4 2 1 SE 1021,7 -
11.11.2018 15:00:00 18,5 16,8 8 4 ESE 1021,4 -
11.11.2018 14:00:00 19,0 16,9 8 4 E 1021,2 -
11.11.2018 13:00:00 19,0 17,1 5 3 E 1021,0 0,0
11.11.2018 12:00:00 19,8 17,7 5 3 S 1021,0 -
11.11.2018 11:00:00 19,4 17,5 5 3 S 1021,1 -
11.11.2018 10:00:00 18,9 17,5 5 3 SSE 1021,3 -
11.11.2018 09:00:00 17,4 17,3 4 2 SSE 1020,6 -
11.11.2018 08:00:00 15,0 14,9 2 1 SE 1019,8 -
11.11.2018 07:00:00 14,1 14,0 4 2 SE 1018,9 0,0
11.11.2018 06:00:00 14,1 14,0 4 2 SSE 1018,4 -
11.11.2018 05:00:00 14,1 14,0 4 2 SSE 1018,0 -
11.11.2018 04:00:00 13,9 13,8 4 2 SE 1017,8 -
11.11.2018 03:00:00 13,9 13,8 4 2 SE 1017,7 -
11.11.2018 02:00:00 14,4 14,3 5 3 ESE 1017,9 -
11.11.2018 01:00:00 14,1 14,0 4 2 ESE 1017,7 0,0
11.11.2018 00:00:00 14,5 14,4 4 2 E 1017,7 -
10.11.2018 23:00:00 14,7 14,6 4 2 SE 1017,4 -
10.11.2018 22:00:00 14,6 14,5 4 2 SE 1017,2 -
10.11.2018 21:00:00 15,0 14,9 4 2 S 1016,9 -
10.11.2018 20:00:00 15,5 15,4 4 2 SSE 1016,7 -
10.11.2018 19:00:00 15,6 15,5 5 3 S 1016,3 0,0
10.11.2018 18:00:00 15,5 15,1 8 4 S 1015,9 -
10.11.2018 17:00:00 16,1 14,9 9 5 SSE 1015,6 -
10.11.2018 16:00:00 17,3 16,4 8 4 S 1015,6 -
10.11.2018 15:00:00 17,5 16,6 9 5 SSW 1016,2 -
10.11.2018 14:00:00 18,6 16,9 9 5 SE 1016,5 -
10.11.2018 13:00:00 18,3 18,2 5 3 SSE 1016,8 0,0
10.11.2018 12:00:00 18,2 18,1 5 3 ESE 1017,3 -
10.11.2018 11:00:00 18,0 17,9 5 3 ESE 1017,6 -
10.11.2018 10:00:00 16,0 15,9 2 1 ESE 1023,6 -
10.11.2018 09:00:00 15,6 15,5 4 2 N 1022,8 -
10.11.2018 08:00:00 14,9 14,8 2 1 N 1020,4 -
10.11.2018 07:00:00 13,6 13,5 2 1 NNW 1016,2 -
10.11.2018 06:00:00 12,9 12,8 4 2 NW 1016,2 -
10.11.2018 05:00:00 13,3 13,2 4 2 NNW 1016,3 -
10.11.2018 04:00:00 13,2 13,1 4 2 NW 1016,0 -
10.11.2018 03:00:00 13,7 13,6 4 2 NW 1016,5 -
10.11.2018 02:00:00 14,1 14,0 4 2 NW 1016,5 -
10.11.2018 01:00:00 14,2 14,1 4 2 NW 1017,0 -
10.11.2018 00:00:00 14,1 14,0 2 1 NW 1017,0 -

tt = Température de l'air
td = dewpoint
ff = Vitesse du vent
dd = Direction du vent
ppp = reduced air pressure
rr = Quantités de précipitations

stations d'obs. à proximité